sensor_id;sensor_type;location;lat;lon;timestamp;pressure;altitude;pressure_sealevel;temperature;humidity
55418;BME280;41287;47.554;7.844;2023-04-19T00:02:05;98298.34;;;16.38;63.43
55418;BME280;41287;47.554;7.844;2023-04-19T00:04:33;98301.84;;;16.38;63.41
55418;BME280;41287;47.554;7.844;2023-04-19T00:06:58;98306.44;;;16.38;63.36
55418;BME280;41287;47.554;7.844;2023-04-19T00:09:23;98309.97;;;16.38;63.43
55418;BME280;41287;47.554;7.844;2023-04-19T00:11:49;98305.34;;;16.39;63.26
55418;BME280;41287;47.554;7.844;2023-04-19T00:14:14;98311.09;;;16.37;63.09
55418;BME280;41287;47.554;7.844;2023-04-19T00:16:39;98305.34;;;16.39;63.33
55418;BME280;41287;47.554;7.844;2023-04-19T00:19:06;98299.94;;;16.39;63.30
55418;BME280;41287;47.554;7.844;2023-04-19T00:21:31;98304.56;;;16.38;63.42
55418;BME280;41287;47.554;7.844;2023-04-19T00:23:56;98299.13;;;16.38;63.30
55418;BME280;41287;47.554;7.844;2023-04-19T00:26:22;98309.16;;;16.38;63.23
55418;BME280;41287;47.554;7.844;2023-04-19T00:28:47;98306.44;;;16.38;63.42
55418;BME280;41287;47.554;7.844;2023-04-19T00:31:12;98309.16;;;16.38;63.37
55418;BME280;41287;47.554;7.844;2023-04-19T00:33:38;98311.88;;;16.38;63.34
55418;BME280;41287;47.554;7.844;2023-04-19T00:36:03;98309.97;;;16.38;63.50
55418;BME280;41287;47.554;7.844;2023-04-19T00:38:28;98307.25;;;16.38;63.45
55418;BME280;41287;47.554;7.844;2023-04-19T00:40:54;98306.44;;;16.38;63.34
55418;BME280;41287;47.554;7.844;2023-04-19T00:43:19;98311.88;;;16.38;63.53
55418;BME280;41287;47.554;7.844;2023-04-19T00:45:47;98307.25;;;16.38;63.28
55418;BME280;41287;47.554;7.844;2023-04-19T00:48:13;98318.06;;;16.38;63.41
55418;BME280;41287;47.554;7.844;2023-04-19T00:50:40;98306.16;;;16.39;63.44
55418;BME280;41287;47.554;7.844;2023-04-19T00:53:06;98301.03;;;16.38;63.37
55418;BME280;41287;47.554;7.844;2023-04-19T00:55:32;98302.97;;;16.37;63.43
55418;BME280;41287;47.554;7.844;2023-04-19T00:57:58;98305.34;;;16.39;63.40
55418;BME280;41287;47.554;7.844;2023-04-19T01:00:24;98299.13;;;16.38;63.37
55418;BME280;41287;47.554;7.844;2023-04-19T01:02:49;98301.03;;;16.38;63.45
55418;BME280;41287;47.554;7.844;2023-04-19T01:05:14;98301.84;;;16.38;63.44
55418;BME280;41287;47.554;7.844;2023-04-19T01:07:41;98300.28;;;16.37;63.42
55418;BME280;41287;47.554;7.844;2023-04-19T01:10:09;98296.44;;;16.38;63.27
55418;BME280;41287;47.554;7.844;2023-04-19T01:12:36;98301.03;;;16.38;63.28
55418;BME280;41287;47.554;7.844;2023-04-19T01:15:02;98295.63;;;16.38;63.44
55418;BME280;41287;47.554;7.844;2023-04-19T01:17:27;98290.22;;;16.38;63.26
55418;BME280;41287;47.554;7.844;2023-04-19T01:20:00;98287.84;;;16.36;63.40
55418;BME280;41287;47.554;7.844;2023-04-19T01:22:25;98289.47;;;16.37;63.37
55418;BME280;41287;47.554;7.844;2023-04-19T01:24:52;98286.75;;;16.37;63.39
55418;BME280;41287;47.554;7.844;2023-04-19T01:27:17;98280.53;;;16.37;63.28
55418;BME280;41287;47.554;7.844;2023-04-19T01:29:44;98282.91;;;16.38;63.45
55418;BME280;41287;47.554;7.844;2023-04-19T01:32:09;98279.41;;;16.38;63.36
55418;BME280;41287;47.554;7.844;2023-04-19T01:34:37;98277.50;;;16.38;63.35
55418;BME280;41287;47.554;7.844;2023-04-19T01:37:02;98273.22;;;16.37;63.28
55418;BME280;41287;47.554;7.844;2023-04-19T01:39:28;98276.72;;;16.38;63.43
55418;BME280;41287;47.554;7.844;2023-04-19T01:41:53;98274.00;;;16.38;63.37
55418;BME280;41287;47.554;7.844;2023-04-19T01:44:18;98273.22;;;16.37;63.38
55418;BME280;41287;47.554;7.844;2023-04-19T01:46:44;98274.34;;;16.36;63.38
55418;BME280;41287;47.554;7.844;2023-04-19T01:49:11;98275.94;;;16.37;63.39
55418;BME280;41287;47.554;7.844;2023-04-19T01:51:38;98265.88;;;16.38;63.39
55418;BME280;41287;47.554;7.844;2023-04-19T01:54:03;98267.50;;;16.39;63.36
55418;BME280;41287;47.554;7.844;2023-04-19T01:56:29;98267.03;;;16.37;63.39
55418;BME280;41287;47.554;7.844;2023-04-19T01:58:55;98264.31;;;16.37;63.38
55418;BME280;41287;47.554;7.844;2023-04-19T02:01:21;98263.19;;;16.38;63.35
55418;BME280;41287;47.554;7.844;2023-04-19T02:03:46;98265.88;;;16.38;63.30
55418;BME280;41287;47.554;7.844;2023-04-19T02:06:12;98255.06;;;16.38;63.42
55418;BME280;41287;47.554;7.844;2023-04-19T02:08:38;98257.78;;;16.38;63.38
55418;BME280;41287;47.554;7.844;2023-04-19T02:11:07;98263.19;;;16.38;63.30
55418;BME280;41287;47.554;7.844;2023-04-19T02:13:33;98256.22;;;16.37;63.38
55418;BME280;41287;47.554;7.844;2023-04-19T02:15:58;98257.78;;;16.38;63.20
55418;BME280;41287;47.554;7.844;2023-04-19T02:18:25;98254.31;;;16.37;63.43
55418;BME280;41287;47.554;7.844;2023-04-19T02:20:52;98262.41;;;16.37;63.31
55418;BME280;41287;47.554;7.844;2023-04-19T02:23:20;98254.31;;;16.37;63.24
55418;BME280;41287;47.554;7.844;2023-04-19T02:25:45;98258.91;;;16.37;63.37
55418;BME280;41287;47.554;7.844;2023-04-19T02:28:10;98253.16;;;16.38;63.31
55418;BME280;41287;47.554;7.844;2023-04-19T02:30:36;98250.81;;;16.37;63.37
55418;BME280;41287;47.554;7.844;2023-04-19T02:33:02;98253.16;;;16.38;63.42
55418;BME280;41287;47.554;7.844;2023-04-19T02:35:27;98250.81;;;16.37;63.43
55418;BME280;41287;47.554;7.844;2023-04-19T02:37:52;98248.91;;;16.37;63.39
55418;BME280;41287;47.554;7.844;2023-04-19T02:40:18;98247.28;;;16.36;63.55
55418;BME280;41287;47.554;7.844;2023-04-19T02:42:43;98251.59;;;16.37;63.38
55418;BME280;41287;47.554;7.844;2023-04-19T02:45:09;98243.78;;;16.36;63.26
55418;BME280;41287;47.554;7.844;2023-04-19T02:47:34;98246.50;;;16.36;63.24
55418;BME280;41287;47.554;7.844;2023-04-19T02:50:00;98242.69;;;16.37;63.34
55418;BME280;41287;47.554;7.844;2023-04-19T02:52:26;98246.19;;;16.37;63.45
55418;BME280;41287;47.554;7.844;2023-04-19T02:54:52;98241.09;;;16.36;63.40
55418;BME280;41287;47.554;7.844;2023-04-19T02:57:17;98235.69;;;16.36;63.28
55418;BME280;41287;47.554;7.844;2023-04-19T02:59:43;98240.78;;;16.37;63.40
55418;BME280;41287;47.554;7.844;2023-04-19T03:02:08;98246.19;;;16.37;63.37
55418;BME280;41287;47.554;7.844;2023-04-19T03:04:33;98244.59;;;16.36;63.40
55418;BME280;41287;47.554;7.844;2023-04-19T03:06:59;98235.38;;;16.37;63.22
55418;BME280;41287;47.554;7.844;2023-04-19T03:09:25;98242.69;;;16.37;63.37
55418;BME280;41287;47.554;7.844;2023-04-19T03:11:50;98238.09;;;16.37;63.42
55418;BME280;41287;47.554;7.844;2023-04-19T03:14:15;98245.41;;;16.37;63.43
55418;BME280;41287;47.554;7.844;2023-04-19T03:16:40;98246.19;;;16.37;63.30
55418;BME280;41287;47.554;7.844;2023-04-19T03:19:08;98247.28;;;16.36;63.45
55418;BME280;41287;47.554;7.844;2023-04-19T03:21:33;98239.97;;;16.37;63.23
55418;BME280;41287;47.554;7.844;2023-04-19T03:24:00;98242.69;;;16.37;63.36
55418;BME280;41287;47.554;7.844;2023-04-19T03:26:25;98239.97;;;16.37;63.25
55418;BME280;41287;47.554;7.844;2023-04-19T03:28:51;98243.50;;;16.37;63.37
55418;BME280;41287;47.554;7.844;2023-04-19T03:31:18;98241.88;;;16.36;63.37
55418;BME280;41287;47.554;7.844;2023-04-19T03:33:45;98248.09;;;16.37;63.36
55418;BME280;41287;47.554;7.844;2023-04-19T03:36:11;98242.69;;;16.37;62.92
55418;BME280;41287;47.554;7.844;2023-04-19T03:38:36;98241.09;;;16.36;63.38
55418;BME280;41287;47.554;7.844;2023-04-19T03:41:03;98239.19;;;16.36;63.33
55418;BME280;41287;47.554;7.844;2023-04-19T03:43:30;98234.56;;;16.37;63.44
55418;BME280;41287;47.554;7.844;2023-04-19T03:45:56;98235.69;;;16.36;63.17
55418;BME280;41287;47.554;7.844;2023-04-19T03:48:21;98232.66;;;16.37;63.37
55418;BME280;41287;47.554;7.844;2023-04-19T03:50:48;98231.06;;;16.36;63.42
55418;BME280;41287;47.554;7.844;2023-04-19T03:53:13;98222.97;;;16.36;63.45
55418;BME280;41287;47.554;7.844;2023-04-19T03:55:38;98222.97;;;16.36;63.44
55418;BME280;41287;47.554;7.844;2023-04-19T03:58:04;98225.66;;;16.36;63.43
55418;BME280;41287;47.554;7.844;2023-04-19T04:00:29;98222.97;;;16.36;63.32
55418;BME280;41287;47.554;7.844;2023-04-19T04:02:55;98220.25;;;16.36;63.22
55418;BME280;41287;47.554;7.844;2023-04-19T04:05:20;98231.06;;;16.36;63.37
55418;BME280;41287;47.554;7.844;2023-04-19T04:07:46;98227.25;;;16.37;63.45
55418;BME280;41287;47.554;7.844;2023-04-19T04:10:11;98224.88;;;16.36;63.33
55418;BME280;41287;47.554;7.844;2023-04-19T04:12:36;98227.25;;;16.37;63.27
55418;BME280;41287;47.554;7.844;2023-04-19T04:15:02;98231.06;;;16.36;63.33
55418;BME280;41287;47.554;7.844;2023-04-19T04:17:29;98239.97;;;16.37;63.34
55418;BME280;41287;47.554;7.844;2023-04-19T04:19:55;98231.06;;;16.36;63.27
55418;BME280;41287;47.554;7.844;2023-04-19T04:22:20;98230.28;;;16.36;63.39
55418;BME280;41287;47.554;7.844;2023-04-19T04:24:45;98230.28;;;16.36;63.44
55418;BME280;41287;47.554;7.844;2023-04-19T04:27:12;98234.56;;;16.37;63.36
55418;BME280;41287;47.554;7.844;2023-04-19T04:29:39;98236.47;;;16.36;63.43
55418;BME280;41287;47.554;7.844;2023-04-19T04:32:06;98237.28;;;16.37;63.32
55418;BME280;41287;47.554;7.844;2023-04-19T04:34:33;98239.19;;;16.36;63.40
55418;BME280;41287;47.554;7.844;2023-04-19T04:36:59;98237.28;;;16.37;63.37
55418;BME280;41287;47.554;7.844;2023-04-19T04:39:25;98241.88;;;16.36;63.39
55418;BME280;41287;47.554;7.844;2023-04-19T04:41:50;98238.38;;;16.36;63.38
55418;BME280;41287;47.554;7.844;2023-04-19T04:44:17;98233.78;;;16.36;63.42
55418;BME280;41287;47.554;7.844;2023-04-19T04:46:44;98239.19;;;16.36;63.28
55418;BME280;41287;47.554;7.844;2023-04-19T04:49:09;98241.09;;;16.36;63.12
55418;BME280;41287;47.554;7.844;2023-04-19T04:51:35;98247.28;;;16.36;63.39
55418;BME280;41287;47.554;7.844;2023-04-19T04:54:01;98251.59;;;16.37;63.40
55418;BME280;41287;47.554;7.844;2023-04-19T04:56:26;98237.28;;;16.37;63.52
55418;BME280;41287;47.554;7.844;2023-04-19T04:58:52;98240.28;;;16.35;63.50
55418;BME280;41287;47.554;7.844;2023-04-19T05:01:19;98244.59;;;16.36;63.33
55418;BME280;41287;47.554;7.844;2023-04-19T05:03:48;98247.28;;;16.36;63.40
55418;BME280;41287;47.554;7.844;2023-04-19T05:06:13;98240.28;;;16.35;63.38
55418;BME280;41287;47.554;7.844;2023-04-19T05:08:38;98243.78;;;16.36;63.42
55418;BME280;41287;47.554;7.844;2023-04-19T05:11:04;98244.91;;;16.35;63.32
55418;BME280;41287;47.554;7.844;2023-04-19T05:13:29;98250.00;;;16.36;63.27
55418;BME280;41287;47.554;7.844;2023-04-19T05:15:54;98249.19;;;16.36;63.38
55418;BME280;41287;47.554;7.844;2023-04-19T05:18:20;98254.59;;;16.36;63.53
55418;BME280;41287;47.554;7.844;2023-04-19T05:20:45;98252.72;;;16.36;63.42
55418;BME280;41287;47.554;7.844;2023-04-19T05:23:11;98247.28;;;16.36;63.38
55418;BME280;41287;47.554;7.844;2023-04-19T05:25:36;98252.72;;;16.36;63.33
55418;BME280;41287;47.554;7.844;2023-04-19T05:28:02;98248.41;;;16.35;63.40
55418;BME280;41287;47.554;7.844;2023-04-19T05:30:28;98249.19;;;16.36;63.28
55418;BME280;41287;47.554;7.844;2023-04-19T05:32:53;98250.00;;;16.36;63.45
55418;BME280;41287;47.554;7.844;2023-04-19T05:35:19;98251.09;;;16.35;63.33
55418;BME280;41287;47.554;7.844;2023-04-19T05:37:44;98257.31;;;16.36;63.45
55418;BME280;41287;47.554;7.844;2023-04-19T05:40:10;98256.53;;;16.35;63.26
55418;BME280;41287;47.554;7.844;2023-04-19T05:42:36;98254.59;;;16.36;63.30
55418;BME280;41287;47.554;7.844;2023-04-19T05:45:03;98257.31;;;16.36;63.32
55418;BME280;41287;47.554;7.844;2023-04-19T05:47:28;98256.53;;;16.35;63.34
55418;BME280;41287;47.554;7.844;2023-04-19T05:49:53;98257.31;;;16.36;63.22
55418;BME280;41287;47.554;7.844;2023-04-19T05:52:19;98253.81;;;16.35;63.33
55418;BME280;41287;47.554;7.844;2023-04-19T05:54:45;98259.22;;;16.35;63.36
55418;BME280;41287;47.554;7.844;2023-04-19T05:57:10;98251.09;;;16.35;63.31
55418;BME280;41287;47.554;7.844;2023-04-19T05:59:35;98261.94;;;16.35;63.34
55418;BME280;41287;47.554;7.844;2023-04-19T06:02:00;98262.72;;;16.36;63.32
55418;BME280;41287;47.554;7.844;2023-04-19T06:04:28;98257.63;;;16.34;63.34
55418;BME280;41287;47.554;7.844;2023-04-19T06:06:53;98251.91;;;16.36;63.33
55418;BME280;41287;47.554;7.844;2023-04-19T06:09:18;98257.31;;;16.36;63.31
55418;BME280;41287;47.554;7.844;2023-04-19T06:11:44;98257.63;;;16.34;63.41
55418;BME280;41287;47.554;7.844;2023-04-19T06:14:10;98261.94;;;16.35;63.30
55418;BME280;41287;47.554;7.844;2023-04-19T06:16:37;98261.13;;;16.35;63.39
55418;BME280;41287;47.554;7.844;2023-04-19T06:19:03;98262.72;;;16.36;63.39
55418;BME280;41287;47.554;7.844;2023-04-19T06:21:31;98265.72;;;16.34;63.42
55418;BME280;41287;47.554;7.844;2023-04-19T06:23:57;98263.84;;;16.35;63.24
55418;BME280;41287;47.554;7.844;2023-04-19T06:26:22;98270.03;;;16.35;63.30
55418;BME280;41287;47.554;7.844;2023-04-19T06:28:49;98278.94;;;16.36;63.32
55418;BME280;41287;47.554;7.844;2023-04-19T06:31:15;98270.03;;;16.35;63.33
55418;BME280;41287;47.554;7.844;2023-04-19T06:33:40;98271.94;;;16.35;63.34
55418;BME280;41287;47.554;7.844;2023-04-19T06:36:05;98273.03;;;16.34;63.43
55418;BME280;41287;47.554;7.844;2023-04-19T06:38:31;98275.44;;;16.35;63.33
55418;BME280;41287;47.554;7.844;2023-04-19T06:40:56;98278.16;;;16.35;63.70
55418;BME280;41287;47.554;7.844;2023-04-19T06:43:22;98272.75;;;16.35;63.40
55418;BME280;41287;47.554;7.844;2023-04-19T06:45:47;98273.53;;;16.36;63.38
55418;BME280;41287;47.554;7.844;2023-04-19T06:48:12;98275.44;;;16.35;63.30
55418;BME280;41287;47.554;7.844;2023-04-19T06:50:38;98271.16;;;16.34;63.31
55418;BME280;41287;47.554;7.844;2023-04-19T06:53:03;98275.44;;;16.35;63.25
55418;BME280;41287;47.554;7.844;2023-04-19T06:55:28;98274.66;;;16.35;63.32
55418;BME280;41287;47.554;7.844;2023-04-19T06:57:54;98277.34;;;16.35;63.48
55418;BME280;41287;47.554;7.844;2023-04-19T07:00:21;98277.34;;;16.35;63.36
55418;BME280;41287;47.554;7.844;2023-04-19T07:02:49;98274.66;;;16.35;63.44
55418;BME280;41287;47.554;7.844;2023-04-19T07:05:15;98276.56;;;16.34;63.41
55418;BME280;41287;47.554;7.844;2023-04-19T07:07:40;98276.56;;;16.34;63.39
55418;BME280;41287;47.554;7.844;2023-04-19T07:10:07;98269.25;;;16.35;63.34
55418;BME280;41287;47.554;7.844;2023-04-19T07:12:33;98277.34;;;16.35;63.33
55418;BME280;41287;47.554;7.844;2023-04-19T07:14:58;98271.16;;;16.34;63.34
55418;BME280;41287;47.554;7.844;2023-04-19T07:17:24;98274.66;;;16.35;63.45
55418;BME280;41287;47.554;7.844;2023-04-19T07:19:49;98271.16;;;16.34;63.38
55418;BME280;41287;47.554;7.844;2023-04-19T07:22:14;98274.94;;;16.33;63.40
55418;BME280;41287;47.554;7.844;2023-04-19T07:24:40;98271.16;;;16.34;63.35
55418;BME280;41287;47.554;7.844;2023-04-19T07:27:06;98270.03;;;16.35;63.32
55418;BME280;41287;47.554;7.844;2023-04-19T07:29:36;98273.84;;;16.34;63.38
55418;BME280;41287;47.554;7.844;2023-04-19T07:32:02;98271.16;;;16.34;63.40
55418;BME280;41287;47.554;7.844;2023-04-19T07:34:27;98271.16;;;16.34;63.39
55418;BME280;41287;47.554;7.844;2023-04-19T07:36:53;98271.94;;;16.35;63.33
55418;BME280;41287;47.554;7.844;2023-04-19T07:39:18;98271.16;;;16.34;63.25
55418;BME280;41287;47.554;7.844;2023-04-19T07:41:44;98275.75;;;16.34;63.49
55418;BME280;41287;47.554;7.844;2023-04-19T07:44:09;98271.16;;;16.34;63.35
55418;BME280;41287;47.554;7.844;2023-04-19T07:46:36;98268.44;;;16.34;63.58
55418;BME280;41287;47.554;7.844;2023-04-19T07:49:03;98276.56;;;16.34;63.34
55418;BME280;41287;47.554;7.844;2023-04-19T07:51:29;98263.84;;;16.35;63.24
55418;BME280;41287;47.554;7.844;2023-04-19T07:53:55;98263.84;;;16.35;63.29
55418;BME280;41287;47.554;7.844;2023-04-19T07:56:21;98273.84;;;16.34;63.40
55418;BME280;41287;47.554;7.844;2023-04-19T07:58:46;98261.13;;;16.35;63.23
55418;BME280;41287;47.554;7.844;2023-04-19T08:01:13;98267.63;;;16.34;63.40
55418;BME280;41287;47.554;7.844;2023-04-19T08:03:41;98270.34;;;16.34;63.39
55418;BME280;41287;47.554;7.844;2023-04-19T08:06:06;98268.44;;;16.34;63.41
55418;BME280;41287;47.554;7.844;2023-04-19T08:08:33;98271.94;;;16.35;63.28
55418;BME280;41287;47.554;7.844;2023-04-19T08:11:01;98270.34;;;16.34;63.26
55418;BME280;41287;47.554;7.844;2023-04-19T08:13:27;98270.34;;;16.34;63.45
55418;BME280;41287;47.554;7.844;2023-04-19T08:15:53;98273.03;;;16.34;63.27
55418;BME280;41287;47.554;7.844;2023-04-19T08:18:18;98259.53;;;16.34;63.34
55418;BME280;41287;47.554;7.844;2023-04-19T08:20:45;98257.94;;;16.33;63.38
55418;BME280;41287;47.554;7.844;2023-04-19T08:23:11;98269.25;;;16.35;63.26
55418;BME280;41287;47.554;7.844;2023-04-19T08:25:36;98256.81;;;16.34;63.37
55418;BME280;41287;47.554;7.844;2023-04-19T08:28:02;98251.41;;;16.34;63.32
55418;BME280;41287;47.554;7.844;2023-04-19T08:30:28;98261.44;;;16.33;63.39
55418;BME280;41287;47.554;7.844;2023-04-19T08:32:59;98258.72;;;16.33;63.33
55418;BME280;41287;47.554;7.844;2023-04-19T08:35:27;98254.13;;;16.34;63.28
55418;BME280;41287;47.554;7.844;2023-04-19T08:37:52;98258.72;;;16.33;63.32
55418;BME280;41287;47.554;7.844;2023-04-19T08:40:20;98262.22;;;16.34;63.32
55418;BME280;41287;47.554;7.844;2023-04-19T08:42:45;98259.53;;;16.34;63.39
55418;BME280;41287;47.554;7.844;2023-04-19T08:45:11;98258.41;;;16.35;63.30
55418;BME280;41287;47.554;7.844;2023-04-19T08:47:38;98250.63;;;16.33;63.32
55418;BME280;41287;47.554;7.844;2023-04-19T08:50:06;98254.13;;;16.34;63.32
55418;BME280;41287;47.554;7.844;2023-04-19T08:52:36;98247.13;;;16.33;63.19
55418;BME280;41287;47.554;7.844;2023-04-19T08:55:03;98249.50;;;16.34;63.25
55418;BME280;41287;47.554;7.844;2023-04-19T08:57:30;98256.81;;;16.34;63.27
55418;BME280;41287;47.554;7.844;2023-04-19T08:59:55;98255.22;;;16.33;63.39
55418;BME280;41287;47.554;7.844;2023-04-19T09:02:22;98259.53;;;16.34;63.39
55418;BME280;41287;47.554;7.844;2023-04-19T09:04:47;98255.22;;;16.33;63.39
55418;BME280;41287;47.554;7.844;2023-04-19T09:07:26;98254.44;;;16.32;63.38
55418;BME280;41287;47.554;7.844;2023-04-19T09:12:31;98252.22;;;16.34;63.77
55418;BME280;41287;47.554;7.844;2023-04-19T09:14:58;98242.50;;;16.33;63.35
55418;BME280;41287;47.554;7.844;2023-04-19T09:17:24;98247.13;;;16.33;63.21
55418;BME280;41287;47.554;7.844;2023-04-19T09:19:49;98254.13;;;16.34;63.37
55418;BME280;41287;47.554;7.844;2023-04-19T09:22:15;98247.13;;;16.33;63.39
55418;BME280;41287;47.554;7.844;2023-04-19T09:24:40;98241.41;;;16.34;63.31
55418;BME280;41287;47.554;7.844;2023-04-19T09:27:07;98234.41;;;16.33;63.33
55418;BME280;41287;47.554;7.844;2023-04-19T09:29:36;98242.19;;;16.35;63.33
55418;BME280;41287;47.554;7.844;2023-04-19T09:32:01;98234.41;;;16.33;63.49
55418;BME280;41287;47.554;7.844;2023-04-19T09:34:28;98234.41;;;16.33;63.26
55418;BME280;41287;47.554;7.844;2023-04-19T09:36:55;98224.69;;;16.32;63.34
55418;BME280;41287;47.554;7.844;2023-04-19T09:39:36;98235.50;;;16.32;63.34
55418;BME280;41287;47.554;7.844;2023-04-19T09:42:03;98220.06;;;16.33;63.46
55418;BME280;41287;47.554;7.844;2023-04-19T09:44:31;98224.69;;;16.32;63.36
55418;BME280;41287;47.554;7.844;2023-04-19T09:46:57;98218.97;;;16.34;63.37
55418;BME280;41287;47.554;7.844;2023-04-19T09:49:23;98209.25;;;16.33;63.52
55418;BME280;41287;47.554;7.844;2023-04-19T09:51:55;98211.16;;;16.32;63.24
55418;BME280;41287;47.554;7.844;2023-04-19T09:54:22;98210.06;;;16.33;63.28
55418;BME280;41287;47.554;7.844;2023-04-19T09:56:49;98208.94;;;16.34;63.25
55418;BME280;41287;47.554;7.844;2023-04-19T09:59:15;98206.56;;;16.33;63.29
55418;BME280;41287;47.554;7.844;2023-04-19T10:01:47;98206.56;;;16.33;63.40
55418;BME280;41287;47.554;7.844;2023-04-19T10:04:14;98206.56;;;16.33;63.34
55418;BME280;41287;47.554;7.844;2023-04-19T10:06:46;98199.88;;;16.30;63.30
55418;BME280;41287;47.554;7.844;2023-04-19T10:09:12;98198.94;;;16.35;63.18
55418;BME280;41287;47.554;7.844;2023-04-19T10:11:38;98196.53;;;16.33;63.36
55418;BME280;41287;47.554;7.844;2023-04-19T10:14:10;98186.53;;;16.34;63.32
55418;BME280;41287;47.554;7.844;2023-04-19T10:16:37;98193.03;;;16.33;63.32
55418;BME280;41287;47.554;7.844;2023-04-19T10:19:08;98187.94;;;16.31;63.40
55418;BME280;41287;47.554;7.844;2023-04-19T10:21:35;98189.53;;;16.32;63.46
55418;BME280;41287;47.554;7.844;2023-04-19T10:24:01;98184.13;;;16.32;63.31
55418;BME280;41287;47.554;7.844;2023-04-19T10:26:27;98188.72;;;16.32;63.26
55418;BME280;41287;47.554;7.844;2023-04-19T10:28:57;98195.28;;;16.31;63.30
55418;BME280;41287;47.554;7.844;2023-04-19T10:31:25;98184.47;;;16.31;63.38
55418;BME280;41287;47.554;7.844;2023-04-19T10:33:51;98186.81;;;16.32;63.29
55418;BME280;41287;47.554;7.844;2023-04-19T10:36:17;98176.00;;;16.32;63.33
55418;BME280;41287;47.554;7.844;2023-04-19T10:38:49;98186.38;;;16.30;63.31
55418;BME280;41287;47.554;7.844;2023-04-19T10:41:22;98181.41;;;16.32;63.29
55418;BME280;41287;47.554;7.844;2023-04-19T10:48:51;98171.41;;;16.33;63.29
55418;BME280;41287;47.554;7.844;2023-04-19T10:51:30;98179.50;;;16.33;63.41
55418;BME280;41287;47.554;7.844;2023-04-19T10:54:03;98176.00;;;16.32;63.42
55418;BME280;41287;47.554;7.844;2023-04-19T11:01:38;98162.50;;;16.32;63.40
55418;BME280;41287;47.554;7.844;2023-04-19T11:04:06;98162.50;;;16.32;63.34
55418;BME280;41287;47.554;7.844;2023-04-19T11:06:32;98157.09;;;16.32;63.27
55418;BME280;41287;47.554;7.844;2023-04-19T11:08:58;98153.59;;;16.32;63.32
55418;BME280;41287;47.554;7.844;2023-04-19T11:11:25;98150.06;;;16.31;63.34
55418;BME280;41287;47.554;7.844;2023-04-19T11:13:52;98147.06;;;16.33;63.32
55418;BME280;41287;47.554;7.844;2023-04-19T11:16:19;98142.75;;;16.32;63.37
55418;BME280;41287;47.554;7.844;2023-04-19T11:18:45;98139.25;;;16.31;63.38
55418;BME280;41287;47.554;7.844;2023-04-19T11:21:13;98141.97;;;16.31;63.65
55418;BME280;41287;47.554;7.844;2023-04-19T11:23:41;98142.75;;;16.32;63.25
55418;BME280;41287;47.554;7.844;2023-04-19T11:26:10;98135.00;;;16.30;63.38
55418;BME280;41287;47.554;7.844;2023-04-19T11:28:37;98134.66;;;16.32;63.41
55418;BME280;41287;47.554;7.844;2023-04-19T11:31:03;98133.84;;;16.31;63.35
55418;BME280;41287;47.554;7.844;2023-04-19T11:33:35;98128.44;;;16.31;63.64
55418;BME280;41287;47.554;7.844;2023-04-19T11:36:01;98134.66;;;16.32;63.30
55418;BME280;41287;47.554;7.844;2023-04-19T11:38:28;98130.03;;;16.32;63.32
55418;BME280;41287;47.554;7.844;2023-04-19T11:41:03;98122.28;;;16.31;63.31
55418;BME280;41287;47.554;7.844;2023-04-19T11:43:34;98117.63;;;16.31;63.41
55418;BME280;41287;47.554;7.844;2023-04-19T11:46:08;98113.38;;;16.30;63.25
55418;BME280;41287;47.554;7.844;2023-04-19T11:48:34;98113.81;;;16.32;63.36
55418;BME280;41287;47.554;7.844;2023-04-19T11:51:00;98112.22;;;16.31;63.32
55418;BME280;41287;47.554;7.844;2023-04-19T11:53:27;98110.31;;;16.32;63.40
55418;BME280;41287;47.554;7.844;2023-04-19T11:55:55;98102.22;;;16.32;63.29
55418;BME280;41287;47.554;7.844;2023-04-19T11:58:31;98097.13;;;16.30;63.36
55418;BME280;41287;47.554;7.844;2023-04-19T12:03:30;98094.91;;;16.32;63.35
55418;BME280;41287;47.554;7.844;2023-04-19T12:05:58;98096.81;;;16.32;63.33
55418;BME280;41287;47.554;7.844;2023-04-19T12:08:31;98092.53;;;16.31;63.18
55418;BME280;41287;47.554;7.844;2023-04-19T12:10:58;98096.81;;;16.32;63.14
55418;BME280;41287;47.554;7.844;2023-04-19T12:13:24;98089.50;;;16.32;63.36
55418;BME280;41287;47.554;7.844;2023-04-19T12:15:50;98087.88;;;16.31;63.38
55418;BME280;41287;47.554;7.844;2023-04-19T12:18:16;98096.81;;;16.32;63.18
55418;BME280;41287;47.554;7.844;2023-04-19T12:20:46;98090.59;;;16.31;63.27
55418;BME280;41287;47.554;7.844;2023-04-19T12:23:13;98087.88;;;16.31;63.22
55418;BME280;41287;47.554;7.844;2023-04-19T12:25:42;98085.19;;;16.31;63.20
55418;BME280;41287;47.554;7.844;2023-04-19T12:28:08;98085.19;;;16.31;63.42
55418;BME280;41287;47.554;7.844;2023-04-19T12:30:39;98078.22;;;16.30;63.28
55418;BME280;41287;47.554;7.844;2023-04-19T12:33:05;98080.56;;;16.32;63.33
55418;BME280;41287;47.554;7.844;2023-04-19T12:35:31;98083.28;;;16.32;63.36
55418;BME280;41287;47.554;7.844;2023-04-19T12:37:57;98076.75;;;16.33;63.28
55418;BME280;41287;47.554;7.844;2023-04-19T12:40:23;98073.59;;;16.31;63.27
55418;BME280;41287;47.554;7.844;2023-04-19T12:42:52;98069.75;;;16.32;63.35
55418;BME280;41287;47.554;7.844;2023-04-19T12:45:19;98068.97;;;16.31;63.30
55418;BME280;41287;47.554;7.844;2023-04-19T12:47:46;98063.56;;;16.31;63.28
55418;BME280;41287;47.554;7.844;2023-04-19T12:50:12;98061.66;;;16.32;63.41
55418;BME280;41287;47.554;7.844;2023-04-19T12:52:38;98066.25;;;16.31;63.33
55418;BME280;41287;47.554;7.844;2023-04-19T12:55:05;98062.78;;;16.31;63.30
55418;BME280;41287;47.554;7.844;2023-04-19T12:57:30;98058.16;;;16.31;63.27
55418;BME280;41287;47.554;7.844;2023-04-19T12:59:56;98060.84;;;16.31;63.21
55418;BME280;41287;47.554;7.844;2023-04-19T13:02:21;98052.75;;;16.31;63.29
55418;BME280;41287;47.554;7.844;2023-04-19T13:04:48;98045.44;;;16.32;63.36
55418;BME280;41287;47.554;7.844;2023-04-19T13:07:16;98052.75;;;16.31;63.33
55418;BME280;41287;47.554;7.844;2023-04-19T13:09:41;98043.88;;;16.31;63.33
55418;BME280;41287;47.554;7.844;2023-04-19T13:12:07;98033.06;;;16.31;63.38